sensor_id;sensor_type;location;lat;lon;timestamp;P1;durP1;ratioP1;P2;durP2;ratioP2
52248;SDS011;38541;48.130;8.378;2022-08-16T00:00:25;3.05;;;2.78;;
52248;SDS011;38541;48.130;8.378;2022-08-16T00:03:04;3.83;;;2.72;;
52248;SDS011;38541;48.130;8.378;2022-08-16T00:05:38;2.92;;;2.72;;
52248;SDS011;38541;48.130;8.378;2022-08-16T00:08:14;3.97;;;2.72;;
52248;SDS011;38541;48.130;8.378;2022-08-16T00:11:01;3.10;;;2.80;;
52248;SDS011;38541;48.130;8.378;2022-08-16T00:13:29;2.83;;;2.63;;
52248;SDS011;38541;48.130;8.378;2022-08-16T00:16:07;3.95;;;3.00;;
52248;SDS011;38541;48.130;8.378;2022-08-16T00:18:54;3.83;;;2.80;;
52248;SDS011;38541;48.130;8.378;2022-08-16T00:21:21;2.88;;;2.67;;
52248;SDS011;38541;48.130;8.378;2022-08-16T00:23:48;3.38;;;3.03;;
52248;SDS011;38541;48.130;8.378;2022-08-16T00:26:16;3.38;;;3.17;;
52248;SDS011;38541;48.130;8.378;2022-08-16T00:29:03;3.15;;;2.85;;
52248;SDS011;38541;48.130;8.378;2022-08-16T00:31:30;2.80;;;2.60;;
52248;SDS011;38541;48.130;8.378;2022-08-16T00:34:19;2.92;;;2.70;;
52248;SDS011;38541;48.130;8.378;2022-08-16T00:37:08;4.35;;;3.25;;
52248;SDS011;38541;48.130;8.378;2022-08-16T00:39:35;3.83;;;3.53;;
52248;SDS011;38541;48.130;8.378;2022-08-16T00:42:04;3.17;;;2.88;;
52248;SDS011;38541;48.130;8.378;2022-08-16T00:44:35;3.55;;;3.08;;
52248;SDS011;38541;48.130;8.378;2022-08-16T00:47:06;3.40;;;3.20;;
52248;SDS011;38541;48.130;8.378;2022-08-16T00:49:37;4.53;;;3.03;;
52248;SDS011;38541;48.130;8.378;2022-08-16T00:52:10;3.92;;;2.95;;
52248;SDS011;38541;48.130;8.378;2022-08-16T00:54:56;2.83;;;2.63;;
52248;SDS011;38541;48.130;8.378;2022-08-16T00:57:25;3.45;;;3.03;;
52248;SDS011;38541;48.130;8.378;2022-08-16T01:00:12;2.80;;;2.60;;
52248;SDS011;38541;48.130;8.378;2022-08-16T01:03:03;3.38;;;3.10;;
52248;SDS011;38541;48.130;8.378;2022-08-16T01:05:37;3.55;;;3.25;;
52248;SDS011;38541;48.130;8.378;2022-08-16T01:08:06;3.47;;;3.17;;
52248;SDS011;38541;48.130;8.378;2022-08-16T01:10:54;3.50;;;3.17;;
52248;SDS011;38541;48.130;8.378;2022-08-16T01:13:27;2.70;;;2.50;;
52248;SDS011;38541;48.130;8.378;2022-08-16T01:15:57;3.53;;;3.03;;
52248;SDS011;38541;48.130;8.378;2022-08-16T01:18:41;3.60;;;3.30;;
52248;SDS011;38541;48.130;8.378;2022-08-16T01:27:21;4.20;;;2.92;;
52248;SDS011;38541;48.130;8.378;2022-08-16T01:30:03;4.05;;;3.17;;
52248;SDS011;38541;48.130;8.378;2022-08-16T01:32:47;3.25;;;2.95;;
52248;SDS011;38541;48.130;8.378;2022-08-16T01:38:18;5.22;;;3.22;;
52248;SDS011;38541;48.130;8.378;2022-08-16T01:40:49;3.88;;;3.17;;
52248;SDS011;38541;48.130;8.378;2022-08-16T01:43:17;3.63;;;3.08;;
52248;SDS011;38541;48.130;8.378;2022-08-16T01:45:51;3.28;;;2.97;;
52248;SDS011;38541;48.130;8.378;2022-08-16T01:48:25;4.32;;;2.95;;
52248;SDS011;38541;48.130;8.378;2022-08-16T01:50:54;3.70;;;3.40;;
52248;SDS011;38541;48.130;8.378;2022-08-16T01:53:35;3.10;;;2.80;;
52248;SDS011;38541;48.130;8.378;2022-08-16T01:56:16;4.03;;;3.08;;
52248;SDS011;38541;48.130;8.378;2022-08-16T01:58:53;2.85;;;2.65;;
52248;SDS011;38541;48.130;8.378;2022-08-16T02:01:23;3.00;;;2.80;;
52248;SDS011;38541;48.130;8.378;2022-08-16T02:03:53;3.20;;;2.90;;
52248;SDS011;38541;48.130;8.378;2022-08-16T02:06:35;4.40;;;2.92;;
52248;SDS011;38541;48.130;8.378;2022-08-16T02:09:05;3.13;;;2.90;;
52248;SDS011;38541;48.130;8.378;2022-08-16T02:11:39;4.63;;;3.50;;
52248;SDS011;38541;48.130;8.378;2022-08-16T02:14:19;9.18;;;2.80;;
52248;SDS011;38541;48.130;8.378;2022-08-16T02:16:53;2.97;;;2.78;;
52248;SDS011;38541;48.130;8.378;2022-08-16T02:19:22;3.20;;;2.95;;
52248;SDS011;38541;48.130;8.378;2022-08-16T02:22:13;3.53;;;3.00;;
52248;SDS011;38541;48.130;8.378;2022-08-16T02:25:07;3.03;;;2.83;;
52248;SDS011;38541;48.130;8.378;2022-08-16T02:27:40;5.05;;;3.67;;
52248;SDS011;38541;48.130;8.378;2022-08-16T02:30:11;3.83;;;3.22;;
52248;SDS011;38541;48.130;8.378;2022-08-16T02:33:00;3.60;;;3.05;;
52248;SDS011;38541;48.130;8.378;2022-08-16T02:35:29;3.78;;;3.05;;
52248;SDS011;38541;48.130;8.378;2022-08-16T02:37:56;3.60;;;3.30;;
52248;SDS011;38541;48.130;8.378;2022-08-16T02:40:34;3.30;;;3.08;;
52248;SDS011;38541;48.130;8.378;2022-08-16T02:43:02;2.90;;;2.70;;
52248;SDS011;38541;48.130;8.378;2022-08-16T02:45:29;3.35;;;3.13;;
52248;SDS011;38541;48.130;8.378;2022-08-16T02:47:57;2.97;;;2.75;;
52248;SDS011;38541;48.130;8.378;2022-08-16T02:50:44;3.25;;;2.80;;
52248;SDS011;38541;48.130;8.378;2022-08-16T02:55:58;3.63;;;3.30;;
52248;SDS011;38541;48.130;8.378;2022-08-16T02:58:26;3.35;;;3.15;;
52248;SDS011;38541;48.130;8.378;2022-08-16T03:00:54;3.70;;;3.38;;
52248;SDS011;38541;48.130;8.378;2022-08-16T03:03:24;3.10;;;2.90;;
52248;SDS011;38541;48.130;8.378;2022-08-16T03:06:12;3.33;;;2.88;;
52248;SDS011;38541;48.130;8.378;2022-08-16T03:09:06;3.40;;;3.10;;
52248;SDS011;38541;48.130;8.378;2022-08-16T03:11:42;5.97;;;3.80;;
52248;SDS011;38541;48.130;8.378;2022-08-16T03:14:10;6.95;;;3.20;;
52248;SDS011;38541;48.130;8.378;2022-08-16T03:16:38;3.72;;;3.42;;
52248;SDS011;38541;48.130;8.378;2022-08-16T03:19:26;3.72;;;3.10;;
52248;SDS011;38541;48.130;8.378;2022-08-16T03:22:17;3.60;;;3.20;;
52248;SDS011;38541;48.130;8.378;2022-08-16T03:24:56;3.47;;;2.95;;
52248;SDS011;38541;48.130;8.378;2022-08-16T03:27:27;3.50;;;3.20;;
52248;SDS011;38541;48.130;8.378;2022-08-16T03:29:58;3.40;;;3.10;;
52248;SDS011;38541;48.130;8.378;2022-08-16T03:32:27;3.97;;;3.45;;
52248;SDS011;38541;48.130;8.378;2022-08-16T03:34:54;3.58;;;3.28;;
52248;SDS011;38541;48.130;8.378;2022-08-16T03:37:21;4.07;;;3.70;;
52248;SDS011;38541;48.130;8.378;2022-08-16T03:39:48;3.38;;;3.08;;
52248;SDS011;38541;48.130;8.378;2022-08-16T03:42:22;3.67;;;3.38;;
52248;SDS011;38541;48.130;8.378;2022-08-16T03:44:48;3.78;;;3.30;;
52248;SDS011;38541;48.130;8.378;2022-08-16T03:47:17;3.55;;;3.25;;
52248;SDS011;38541;48.130;8.378;2022-08-16T03:49:47;3.28;;;3.03;;
52248;SDS011;38541;48.130;8.378;2022-08-16T03:52:19;3.55;;;3.22;;
52248;SDS011;38541;48.130;8.378;2022-08-16T03:54:49;4.10;;;3.65;;
52248;SDS011;38541;48.130;8.378;2022-08-16T03:57:25;3.92;;;3.50;;
52248;SDS011;38541;48.130;8.378;2022-08-16T04:00:10;2.70;;;2.50;;
52248;SDS011;38541;48.130;8.378;2022-08-16T04:03:02;3.55;;;3.00;;
52248;SDS011;38541;48.130;8.378;2022-08-16T04:05:39;3.78;;;3.42;;
52248;SDS011;38541;48.130;8.378;2022-08-16T04:08:13;3.17;;;2.90;;
52248;SDS011;38541;48.130;8.378;2022-08-16T04:10:52;2.97;;;2.78;;
52248;SDS011;38541;48.130;8.378;2022-08-16T04:13:21;3.47;;;3.17;;
52248;SDS011;38541;48.130;8.378;2022-08-16T04:16:09;3.63;;;3.28;;
52248;SDS011;38541;48.130;8.378;2022-08-16T04:18:55;3.63;;;3.20;;
52248;SDS011;38541;48.130;8.378;2022-08-16T04:21:30;4.07;;;3.70;;
52248;SDS011;38541;48.130;8.378;2022-08-16T04:24:00;5.18;;;3.80;;
52248;SDS011;38541;48.130;8.378;2022-08-16T04:26:28;3.67;;;3.38;;
52248;SDS011;38541;48.130;8.378;2022-08-16T04:28:59;3.72;;;3.42;;
52248;SDS011;38541;48.130;8.378;2022-08-16T04:31:47;3.60;;;3.30;;
52248;SDS011;38541;48.130;8.378;2022-08-16T04:34:28;3.60;;;3.30;;
52248;SDS011;38541;48.130;8.378;2022-08-16T04:36:58;4.10;;;3.70;;
52248;SDS011;38541;48.130;8.378;2022-08-16T04:39:28;4.10;;;3.55;;
52248;SDS011;38541;48.130;8.378;2022-08-16T04:42:16;3.80;;;3.50;;
52248;SDS011;38541;48.130;8.378;2022-08-16T04:44:51;4.45;;;4.03;;
52248;SDS011;38541;48.130;8.378;2022-08-16T04:47:26;3.80;;;3.50;;
52248;SDS011;38541;48.130;8.378;2022-08-16T04:50:02;4.10;;;3.70;;
52248;SDS011;38541;48.130;8.378;2022-08-16T04:52:33;5.82;;;4.28;;
52248;SDS011;38541;48.130;8.378;2022-08-16T04:55:18;3.92;;;3.63;;
52248;SDS011;38541;48.130;8.378;2022-08-16T04:57:56;3.92;;;3.60;;
52248;SDS011;38541;48.130;8.378;2022-08-16T05:00:29;4.50;;;4.10;;
52248;SDS011;38541;48.130;8.378;2022-08-16T05:03:05;3.83;;;3.47;;
52248;SDS011;38541;48.130;8.378;2022-08-16T05:05:52;4.43;;;3.88;;
52248;SDS011;38541;48.130;8.378;2022-08-16T05:08:30;3.70;;;3.40;;
52248;SDS011;38541;48.130;8.378;2022-08-16T05:11:16;4.18;;;3.70;;
52248;SDS011;38541;48.130;8.378;2022-08-16T05:13:44;3.67;;;3.35;;
52248;SDS011;38541;48.130;8.378;2022-08-16T05:16:24;3.85;;;3.20;;
52248;SDS011;38541;48.130;8.378;2022-08-16T05:19:02;4.07;;;3.78;;
52248;SDS011;38541;48.130;8.378;2022-08-16T05:21:39;3.40;;;3.20;;
52248;SDS011;38541;48.130;8.378;2022-08-16T05:24:08;4.20;;;3.78;;
52248;SDS011;38541;48.130;8.378;2022-08-16T05:26:37;4.13;;;3.65;;
52248;SDS011;38541;48.130;8.378;2022-08-16T05:29:10;4.07;;;3.47;;
52248;SDS011;38541;48.130;8.378;2022-08-16T05:31:47;4.20;;;3.70;;
52248;SDS011;38541;48.130;8.378;2022-08-16T05:34:19;4.03;;;3.60;;
52248;SDS011;38541;48.130;8.378;2022-08-16T05:36:49;5.30;;;3.67;;
52248;SDS011;38541;48.130;8.378;2022-08-16T05:39:19;3.78;;;3.40;;
52248;SDS011;38541;48.130;8.378;2022-08-16T05:41:48;4.07;;;3.75;;
52248;SDS011;38541;48.130;8.378;2022-08-16T05:44:19;4.32;;;3.92;;
52248;SDS011;38541;48.130;8.378;2022-08-16T05:46:50;4.38;;;3.97;;
52248;SDS011;38541;48.130;8.378;2022-08-16T05:49:18;5.95;;;3.95;;
52248;SDS011;38541;48.130;8.378;2022-08-16T05:51:51;4.07;;;3.65;;
52248;SDS011;38541;48.130;8.378;2022-08-16T05:54:21;4.55;;;4.18;;
52248;SDS011;38541;48.130;8.378;2022-08-16T05:56:53;4.82;;;4.10;;
52248;SDS011;38541;48.130;8.378;2022-08-16T05:59:21;4.60;;;4.20;;
52248;SDS011;38541;48.130;8.378;2022-08-16T06:01:49;4.97;;;4.57;;
52248;SDS011;38541;48.130;8.378;2022-08-16T06:04:21;4.72;;;4.38;;
52248;SDS011;38541;48.130;8.378;2022-08-16T06:07:09;7.88;;;5.32;;
52248;SDS011;38541;48.130;8.378;2022-08-16T06:10:16;5.88;;;5.10;;
52248;SDS011;38541;48.130;8.378;2022-08-16T06:12:58;6.40;;;5.28;;
52248;SDS011;38541;48.130;8.378;2022-08-16T06:15:25;6.43;;;5.53;;
52248;SDS011;38541;48.130;8.378;2022-08-16T06:17:56;6.90;;;5.60;;
52248;SDS011;38541;48.130;8.378;2022-08-16T06:20:25;5.90;;;5.22;;
52248;SDS011;38541;48.130;8.378;2022-08-16T06:23:20;5.40;;;4.90;;
52248;SDS011;38541;48.130;8.378;2022-08-16T06:26:05;5.93;;;4.80;;
52248;SDS011;38541;48.130;8.378;2022-08-16T06:28:35;7.00;;;5.13;;
52248;SDS011;38541;48.130;8.378;2022-08-16T06:31:08;5.45;;;4.93;;
52248;SDS011;38541;48.130;8.378;2022-08-16T06:33:39;4.53;;;3.83;;
52248;SDS011;38541;48.130;8.378;2022-08-16T06:36:10;5.22;;;4.82;;
52248;SDS011;38541;48.130;8.378;2022-08-16T06:38:41;5.85;;;5.00;;
52248;SDS011;38541;48.130;8.378;2022-08-16T06:41:26;5.40;;;4.90;;
52248;SDS011;38541;48.130;8.378;2022-08-16T06:44:09;6.07;;;5.47;;
52248;SDS011;38541;48.130;8.378;2022-08-16T06:46:51;5.90;;;4.18;;
52248;SDS011;38541;48.130;8.378;2022-08-16T06:49:19;4.90;;;4.50;;
52248;SDS011;38541;48.130;8.378;2022-08-16T06:51:46;4.90;;;4.40;;
52248;SDS011;38541;48.130;8.378;2022-08-16T06:54:18;5.30;;;4.82;;
52248;SDS011;38541;48.130;8.378;2022-08-16T06:56:45;6.30;;;5.32;;
52248;SDS011;38541;48.130;8.378;2022-08-16T06:59:13;6.72;;;5.78;;
52248;SDS011;38541;48.130;8.378;2022-08-16T07:01:47;5.40;;;4.95;;
52248;SDS011;38541;48.130;8.378;2022-08-16T07:04:19;6.28;;;4.78;;
52248;SDS011;38541;48.130;8.378;2022-08-16T07:06:59;5.30;;;4.80;;
52248;SDS011;38541;48.130;8.378;2022-08-16T07:09:28;9.75;;;4.80;;
52248;SDS011;38541;48.130;8.378;2022-08-16T07:11:56;4.95;;;4.45;;
52248;SDS011;38541;48.130;8.378;2022-08-16T07:14:32;6.63;;;4.90;;
52248;SDS011;38541;48.130;8.378;2022-08-16T07:17:02;5.65;;;5.15;;
52248;SDS011;38541;48.130;8.378;2022-08-16T07:19:34;4.93;;;4.53;;
52248;SDS011;38541;48.130;8.378;2022-08-16T07:22:25;5.50;;;5.00;;
52248;SDS011;38541;48.130;8.378;2022-08-16T07:25:19;4.70;;;4.28;;
52248;SDS011;38541;48.130;8.378;2022-08-16T07:27:48;6.00;;;4.50;;
52248;SDS011;38541;48.130;8.378;2022-08-16T07:30:18;4.82;;;4.43;;
52248;SDS011;38541;48.130;8.378;2022-08-16T07:33:07;4.50;;;4.10;;
52248;SDS011;38541;48.130;8.378;2022-08-16T07:35:41;6.38;;;4.47;;
52248;SDS011;38541;48.130;8.378;2022-08-16T07:38:15;4.60;;;4.07;;
52248;SDS011;38541;48.130;8.378;2022-08-16T07:40:55;4.32;;;3.92;;
52248;SDS011;38541;48.130;8.378;2022-08-16T07:43:28;4.80;;;4.40;;
52248;SDS011;38541;48.130;8.378;2022-08-16T07:45:57;4.22;;;3.83;;
52248;SDS011;38541;48.130;8.378;2022-08-16T07:48:27;5.38;;;4.53;;
52248;SDS011;38541;48.130;8.378;2022-08-16T07:50:55;4.03;;;3.70;;
52248;SDS011;38541;48.130;8.378;2022-08-16T07:53:27;4.85;;;4.00;;
52248;SDS011;38541;48.130;8.378;2022-08-16T07:55:55;4.97;;;4.47;;
52248;SDS011;38541;48.130;8.378;2022-08-16T07:58:27;3.90;;;3.60;;
52248;SDS011;38541;48.130;8.378;2022-08-16T08:01:00;4.28;;;3.85;;
52248;SDS011;38541;48.130;8.378;2022-08-16T08:03:28;4.45;;;3.78;;
52248;SDS011;38541;48.130;8.378;2022-08-16T08:06:05;4.18;;;3.78;;
52248;SDS011;38541;48.130;8.378;2022-08-16T08:08:35;4.72;;;3.55;;
52248;SDS011;38541;48.130;8.378;2022-08-16T08:11:18;4.30;;;3.80;;
52248;SDS011;38541;48.130;8.378;2022-08-16T08:13:47;3.30;;;3.03;;
52248;SDS011;38541;48.130;8.378;2022-08-16T08:16:19;5.47;;;3.55;;
52248;SDS011;38541;48.130;8.378;2022-08-16T08:18:56;3.58;;;3.28;;
52248;SDS011;38541;48.130;8.378;2022-08-16T08:21:26;4.20;;;3.45;;
52248;SDS011;38541;48.130;8.378;2022-08-16T08:24:13;4.53;;;3.75;;
52248;SDS011;38541;48.130;8.378;2022-08-16T08:26:41;4.18;;;3.80;;
52248;SDS011;38541;48.130;8.378;2022-08-16T08:29:09;4.25;;;3.60;;
52248;SDS011;38541;48.130;8.378;2022-08-16T08:31:37;7.75;;;4.15;;
52248;SDS011;38541;48.130;8.378;2022-08-16T08:34:07;3.50;;;3.20;;
52248;SDS011;38541;48.130;8.378;2022-08-16T08:36:38;3.92;;;3.63;;
52248;SDS011;38541;48.130;8.378;2022-08-16T08:42:20;3.28;;;2.97;;
52248;SDS011;38541;48.130;8.378;2022-08-16T08:44:52;3.40;;;3.10;;
52248;SDS011;38541;48.130;8.378;2022-08-16T08:47:20;3.28;;;2.97;;
52248;SDS011;38541;48.130;8.378;2022-08-16T08:49:48;3.60;;;3.30;;
52248;SDS011;38541;48.130;8.378;2022-08-16T08:52:22;2.92;;;2.70;;
52248;SDS011;38541;48.130;8.378;2022-08-16T08:54:59;3.75;;;2.88;;
52248;SDS011;38541;48.130;8.378;2022-08-16T08:57:35;3.95;;;3.10;;
52248;SDS011;38541;48.130;8.378;2022-08-16T09:00:21;3.33;;;3.10;;
52248;SDS011;38541;48.130;8.378;2022-08-16T09:02:57;3.60;;;2.80;;
52248;SDS011;38541;48.130;8.378;2022-08-16T09:05:24;5.07;;;3.60;;
52248;SDS011;38541;48.130;8.378;2022-08-16T09:08:05;3.35;;;3.15;;
52248;SDS011;38541;48.130;8.378;2022-08-16T09:10:57;3.15;;;2.80;;
52248;SDS011;38541;48.130;8.378;2022-08-16T09:13:29;3.22;;;2.90;;
52248;SDS011;38541;48.130;8.378;2022-08-16T09:15:58;3.03;;;2.42;;
52248;SDS011;38541;48.130;8.378;2022-08-16T09:18:26;3.20;;;2.95;;
52248;SDS011;38541;48.130;8.378;2022-08-16T09:21:02;3.40;;;2.90;;
52248;SDS011;38541;48.130;8.378;2022-08-16T09:23:35;2.88;;;2.67;;
52248;SDS011;38541;48.130;8.378;2022-08-16T09:26:05;4.32;;;2.92;;
52248;SDS011;38541;48.130;8.378;2022-08-16T09:28:53;3.10;;;2.80;;
52248;SDS011;38541;48.130;8.378;2022-08-16T09:31:41;4.40;;;2.85;;
52248;SDS011;38541;48.130;8.378;2022-08-16T09:34:10;3.15;;;2.85;;
52248;SDS011;38541;48.130;8.378;2022-08-16T09:36:43;3.17;;;2.67;;
52248;SDS011;38541;48.130;8.378;2022-08-16T09:39:11;3.58;;;3.28;;
52248;SDS011;38541;48.130;8.378;2022-08-16T09:41:41;2.95;;;2.75;;
52248;SDS011;38541;48.130;8.378;2022-08-16T09:44:19;3.05;;;2.67;;
52248;SDS011;38541;48.130;8.378;2022-08-16T09:47:06;2.67;;;2.45;;
52248;SDS011;38541;48.130;8.378;2022-08-16T09:49:35;3.47;;;2.88;;
52248;SDS011;38541;48.130;8.378;2022-08-16T09:52:07;3.13;;;2.90;;
52248;SDS011;38541;48.130;8.378;2022-08-16T09:54:35;4.68;;;3.13;;
52248;SDS011;38541;48.130;8.378;2022-08-16T09:57:02;3.22;;;2.92;;
52248;SDS011;38541;48.130;8.378;2022-08-16T09:59:29;3.15;;;2.90;;
52248;SDS011;38541;48.130;8.378;2022-08-16T10:02:04;2.95;;;2.65;;
52248;SDS011;38541;48.130;8.378;2022-08-16T10:04:52;2.95;;;2.67;;
52248;SDS011;38541;48.130;8.378;2022-08-16T10:07:20;4.93;;;2.70;;
52248;SDS011;38541;48.130;8.378;2022-08-16T10:09:48;2.80;;;2.60;;
52248;SDS011;38541;48.130;8.378;2022-08-16T10:12:27;2.88;;;2.63;;
52248;SDS011;38541;48.130;8.378;2022-08-16T10:15:22;2.50;;;2.20;;
52248;SDS011;38541;48.130;8.378;2022-08-16T10:17:51;3.53;;;3.13;;
52248;SDS011;38541;48.130;8.378;2022-08-16T10:20:28;5.10;;;2.90;;
52248;SDS011;38541;48.130;8.378;2022-08-16T10:22:59;2.60;;;2.40;;
52248;SDS011;38541;48.130;8.378;2022-08-16T10:25:33;2.72;;;2.15;;
52248;SDS011;38541;48.130;8.378;2022-08-16T10:28:24;3.38;;;3.08;;
52248;SDS011;38541;48.130;8.378;2022-08-16T10:30:54;3.90;;;2.90;;
52248;SDS011;38541;48.130;8.378;2022-08-16T10:33:24;2.97;;;2.58;;
52248;SDS011;38541;48.130;8.378;2022-08-16T10:35:55;2.40;;;2.10;;
52248;SDS011;38541;48.130;8.378;2022-08-16T10:38:29;2.60;;;2.20;;
52248;SDS011;38541;48.130;8.378;2022-08-16T10:41:02;2.83;;;2.63;;
52248;SDS011;38541;48.130;8.378;2022-08-16T10:43:32;2.40;;;2.20;;
52248;SDS011;38541;48.130;8.378;2022-08-16T10:46:04;2.30;;;2.20;;
52248;SDS011;38541;48.130;8.378;2022-08-16T10:48:52;2.30;;;2.20;;
52248;SDS011;38541;48.130;8.378;2022-08-16T10:51:18;2.72;;;2.33;;
52248;SDS011;38541;48.130;8.378;2022-08-16T10:53:58;2.22;;;2.03;;
52248;SDS011;38541;48.130;8.378;2022-08-16T10:56:25;3.15;;;2.72;;
52248;SDS011;38541;48.130;8.378;2022-08-16T10:59:12;2.67;;;2.47;;
52248;SDS011;38541;48.130;8.378;2022-08-16T11:01:59;2.65;;;2.10;;
52248;SDS011;38541;48.130;8.378;2022-08-16T11:04:46;3.08;;;2.47;;
52248;SDS011;38541;48.130;8.378;2022-08-16T11:07:33;2.60;;;2.40;;
52248;SDS011;38541;48.130;8.378;2022-08-16T11:10:10;2.05;;;1.95;;
52248;SDS011;38541;48.130;8.378;2022-08-16T11:13:01;2.28;;;2.08;;
52248;SDS011;38541;48.130;8.378;2022-08-16T11:15:47;3.08;;;2.47;;
52248;SDS011;38541;48.130;8.378;2022-08-16T11:18:22;2.40;;;2.20;;
52248;SDS011;38541;48.130;8.378;2022-08-16T11:21:09;2.20;;;2.00;;
52248;SDS011;38541;48.130;8.378;2022-08-16T11:23:54;2.13;;;1.92;;
52248;SDS011;38541;48.130;8.378;2022-08-16T11:26:25;5.30;;;2.22;;
52248;SDS011;38541;48.130;8.378;2022-08-16T11:28:51;2.95;;;2.17;;
52248;SDS011;38541;48.130;8.378;2022-08-16T11:31:40;2.35;;;2.15;;
52248;SDS011;38541;48.130;8.378;2022-08-16T11:34:19;3.53;;;2.63;;
52248;SDS011;38541;48.130;8.378;2022-08-16T11:36:46;2.17;;;2.03;;
52248;SDS011;38541;48.130;8.378;2022-08-16T11:39:25;2.45;;;1.95;;
52248;SDS011;38541;48.130;8.378;2022-08-16T11:41:53;2.28;;;2.00;;
52248;SDS011;38541;48.130;8.378;2022-08-16T11:44:21;2.17;;;2.00;;
52248;SDS011;38541;48.130;8.378;2022-08-16T11:47:07;2.25;;;2.10;;
52248;SDS011;38541;48.130;8.378;2022-08-16T11:49:34;2.30;;;2.10;;
52248;SDS011;38541;48.130;8.378;2022-08-16T11:52:01;2.20;;;2.10;;
52248;SDS011;38541;48.130;8.378;2022-08-16T11:54:28;2.55;;;2.35;;
52248;SDS011;38541;48.130;8.378;2022-08-16T11:57:02;2.50;;;2.22;;
52248;SDS011;38541;48.130;8.378;2022-08-16T11:59:34;2.22;;;2.08;;
52248;SDS011;38541;48.130;8.378;2022-08-16T12:02:05;2.90;;;2.05;;
52248;SDS011;38541;48.130;8.378;2022-08-16T12:04:53;2.88;;;2.05;;
52248;SDS011;38541;48.130;8.378;2022-08-16T12:07:20;2.85;;;2.30;;
52248;SDS011;38541;48.130;8.378;2022-08-16T12:09:49;2.78;;;2.10;;
52248;SDS011;38541;48.130;8.378;2022-08-16T12:12:35;1.98;;;1.88;;
52248;SDS011;38541;48.130;8.378;2022-08-16T12:15:03;5.47;;;2.75;;
52248;SDS011;38541;48.130;8.378;2022-08-16T12:17:31;2.28;;;2.17;;
52248;SDS011;38541;48.130;8.378;2022-08-16T12:20:03;3.78;;;2.45;;
52248;SDS011;38541;48.130;8.378;2022-08-16T12:22:35;2.40;;;2.20;;
52248;SDS011;38541;48.130;8.378;2022-08-16T12:25:07;3.17;;;1.83;;
52248;SDS011;38541;48.130;8.378;2022-08-16T12:27:37;1.70;;;1.60;;
52248;SDS011;38541;48.130;8.378;2022-08-16T12:30:05;2.30;;;2.10;;
52248;SDS011;38541;48.130;8.378;2022-08-16T12:32:46;2.45;;;2.30;;
52248;SDS011;38541;48.130;8.378;2022-08-16T12:35:20;3.20;;;2.08;;
52248;SDS011;38541;48.130;8.378;2022-08-16T12:37:48;2.05;;;1.95;;
52248;SDS011;38541;48.130;8.378;2022-08-16T12:40:23;2.60;;;2.40;;
52248;SDS011;38541;48.130;8.378;2022-08-16T12:42:55;2.38;;;2.22;;
52248;SDS011;38541;48.130;8.378;2022-08-16T12:45:29;2.20;;;2.00;;
52248;SDS011;38541;48.130;8.378;2022-08-16T12:48:02;5.55;;;2.60;;
52248;SDS011;38541;48.130;8.378;2022-08-16T12:51:01;2.42;;;2.22;;
52248;SDS011;38541;48.130;8.378;2022-08-16T12:53:48;1.80;;;1.70;;
52248;SDS011;38541;48.130;8.378;2022-08-16T12:56:19;2.08;;;1.98;;
52248;SDS011;38541;48.130;8.378;2022-08-16T12:58:50;1.92;;;1.83;;
52248;SDS011;38541;48.130;8.378;2022-08-16T13:01:25;1.90;;;1.80;;
52248;SDS011;38541;48.130;8.378;2022-08-16T13:03:55;2.42;;;2.03;;
52248;SDS011;38541;48.130;8.378;2022-08-16T13:06:43;2.40;;;2.20;;
52248;SDS011;38541;48.130;8.378;2022-08-16T13:09:10;2.40;;;2.20;;
52248;SDS011;38541;48.130;8.378;2022-08-16T13:12:04;2.15;;;2.05;;
52248;SDS011;38541;48.130;8.378;2022-08-16T13:14:41;2.10;;;1.92;;
52248;SDS011;38541;48.130;8.378;2022-08-16T13:17:10;2.33;;;2.05;;
52248;SDS011;38541;48.130;8.378;2022-08-16T13:19:46;2.38;;;1.80;;
52248;SDS011;38541;48.130;8.378;2022-08-16T13:22:34;1.80;;;1.70;;
52248;SDS011;38541;48.130;8.378;2022-08-16T13:25:04;1.63;;;1.52;;
52248;SDS011;38541;48.130;8.378;2022-08-16T13:27:34;1.80;;;1.70;;
52248;SDS011;38541;48.130;8.378;2022-08-16T13:30:20;2.03;;;1.70;;
52248;SDS011;38541;48.130;8.378;2022-08-16T13:33:06;1.70;;;1.60;;
52248;SDS011;38541;48.130;8.378;2022-08-16T13:35:38;1.70;;;1.60;;
52248;SDS011;38541;48.130;8.378;2022-08-16T13:38:10;2.00;;;1.90;;
52248;SDS011;38541;48.130;8.378;2022-08-16T13:40:52;2.28;;;2.08;;
52248;SDS011;38541;48.130;8.378;2022-08-16T13:43:21;1.77;;;1.67;;
52248;SDS011;38541;48.130;8.378;2022-08-16T13:45:51;1.92;;;1.83;;
52248;SDS011;38541;48.130;8.378;2022-08-16T13:48:20;2.20;;;2.08;;
52248;SDS011;38541;48.130;8.378;2022-08-16T13:50:51;3.05;;;1.67;;
52248;SDS011;38541;48.130;8.378;2022-08-16T13:53:19;1.98;;;1.83;;
52248;SDS011;38541;48.130;8.378;2022-08-16T13:55:50;2.22;;;2.05;;
52248;SDS011;38541;48.130;8.378;2022-08-16T13:58:25;2.00;;;1.90;;
52248;SDS011;38541;48.130;8.378;2022-08-16T14:01:13;2.70;;;1.88;;
52248;SDS011;38541;48.130;8.378;2022-08-16T14:03:42;1.83;;;1.73;;
52248;SDS011;38541;48.130;8.378;2022-08-16T14:06:10;1.90;;;1.70;;
52248;SDS011;38541;48.130;8.378;2022-08-16T14:08:40;1.98;;;1.88;;
52248;SDS011;38541;48.130;8.378;2022-08-16T14:11:09;2.35;;;2.20;;
52248;SDS011;38541;48.130;8.378;2022-08-16T14:13:40;2.05;;;1.70;;
52248;SDS011;38541;48.130;8.378;2022-08-16T14:16:07;2.00;;;1.90;;
52248;SDS011;38541;48.130;8.378;2022-08-16T14:18:49;1.88;;;1.73;;
52248;SDS011;38541;48.130;8.378;2022-08-16T14:21:18;2.60;;;1.80;;
52248;SDS011;38541;48.130;8.378;2022-08-16T14:23:47;1.80;;;1.70;;
52248;SDS011;38541;48.130;8.378;2022-08-16T14:26:13;1.92;;;1.80;;
52248;SDS011;38541;48.130;8.378;2022-08-16T14:28:40;2.40;;;2.20;;
52248;SDS011;38541;48.130;8.378;2022-08-16T14:31:07;2.20;;;2.00;;
52248;SDS011;38541;48.130;8.378;2022-08-16T14:33:34;2.25;;;2.15;;
52248;SDS011;38541;48.130;8.378;2022-08-16T14:36:01;2.08;;;1.80;;
52248;SDS011;38541;48.130;8.378;2022-08-16T14:38:28;2.88;;;2.10;;
52248;SDS011;38541;48.130;8.378;2022-08-16T14:41:04;2.47;;;1.90;;
52248;SDS011;38541;48.130;8.378;2022-08-16T14:43:35;1.90;;;1.80;;
52248;SDS011;38541;48.130;8.378;2022-08-16T14:46:02;2.30;;;2.20;;
52248;SDS011;38541;48.130;8.378;2022-08-16T14:48:32;3.03;;;2.13;;
52248;SDS011;38541;48.130;8.378;2022-08-16T14:50:59;2.35;;;2.15;;
52248;SDS011;38541;48.130;8.378;2022-08-16T14:53:26;2.20;;;2.05;;
52248;SDS011;38541;48.130;8.378;2022-08-16T14:55:58;2.72;;;2.53;;
52248;SDS011;38541;48.130;8.378;2022-08-16T14:58:24;2.50;;;1.83;;
52248;SDS011;38541;48.130;8.378;2022-08-16T15:01:02;1.95;;;1.80;;
52248;SDS011;38541;48.130;8.378;2022-08-16T15:03:30;1.95;;;1.85;;
52248;SDS011;38541;48.130;8.378;2022-08-16T15:06:02;2.00;;;1.80;;
52248;SDS011;38541;48.130;8.378;2022-08-16T15:08:29;2.90;;;2.70;;
52248;SDS011;38541;48.130;8.378;2022-08-16T15:11:02;2.10;;;2.00;;
52248;SDS011;38541;48.130;8.378;2022-08-16T15:13:30;2.35;;;2.15;;
52248;SDS011;38541;48.130;8.378;2022-08-16T15:15:56;2.70;;;2.50;;
52248;SDS011;38541;48.130;8.378;2022-08-16T15:18:29;2.03;;;1.92;;
52248;SDS011;38541;48.130;8.378;2022-08-16T15:20:58;2.22;;;2.03;;
52248;SDS011;38541;48.130;8.378;2022-08-16T15:23:26;1.77;;;1.67;;
52248;SDS011;38541;48.130;8.378;2022-08-16T15:25:54;2.45;;;1.75;;
52248;SDS011;38541;48.130;8.378;2022-08-16T15:28:29;2.63;;;2.42;;
52248;SDS011;38541;48.130;8.378;2022-08-16T15:30:58;2.40;;;2.30;;
52248;SDS011;38541;48.130;8.378;2022-08-16T15:33:29;2.33;;;2.13;;
52248;SDS011;38541;48.130;8.378;2022-08-16T15:35:58;2.35;;;2.03;;
52248;SDS011;38541;48.130;8.378;2022-08-16T15:38:25;2.03;;;1.75;;
52248;SDS011;38541;48.130;8.378;2022-08-16T15:44:10;2.08;;;1.80;;
52248;SDS011;38541;48.130;8.378;2022-08-16T15:46:38;2.30;;;2.10;;
52248;SDS011;38541;48.130;8.378;2022-08-16T15:49:24;2.65;;;2.40;;